Temp: 8.5°C   Baro: 1005.7mb
  Wind: 4.9mph   Dir: W (269°)
  Rain: 0.6mm (0.0mm/hr)
  Sun: 0W/m2  Humidity: 93%

Historic data

Bath Spa Weather Station Historical Data
Daily Summary for October 12, 2022 Units:  Both    English   Metric
Daily Weekly Monthly Yearly Custom
  High: Low: Average:
Temperature: 61.6 °F /  16.4 °C 41.9 °F /  5.5 °C 52.8 °F /  11.6 °C
Dew Point: 53.2 °F /  11.8 °C 38.7 °F /  3.7 °C 47.8 °F /  8.8 °C
Humidity: 93% 69% 84%
Wind Speed: 9.2mph /  14.8km/h - 2.1mph /  3.4km/h
Wind Gust: 14mph /  22.5km/h - -
Wind- - SW
Pressure: 30.26 in /  1024.6 hPa 30.06 in /  1017.8 hPa -
Precipitation: 0.00 in /  0 mm    
Historical Graphs
 
 
Tabular Data for October 12, 2022
Time Temperature Dew Point Pressure Wind Wind Speed Wind Gust Humidity Rainfall Rate (Hourly) solar
00:09 42.5 °F /  5.8 °C 39.3 °F /  4.1 °C 30.26in /  1024.6hPa Calm     88% 0.00in /  0mm 0 W/m2
00:14 42.4 °F /  5.8 °C 39.2 °F /  4 °C 30.26in /  1024.6hPa Calm     88% 0.00in /  0mm 0 W/m2
00:19 42.3 °F /  5.7 °C 39 °F /  3.9 °C 30.26in /  1024.6hPa Calm     88% 0.00in /  0mm 0 W/m2
00:24 42.3 °F /  5.7 °C 39 °F /  3.9 °C 30.26in /  1024.6hPa Calm     88% 0.00in /  0mm 0 W/m2
00:29 42.1 °F /  5.6 °C 38.8 °F /  3.8 °C 30.26in /  1024.6hPa Calm     88% 0.00in /  0mm 0 W/m2
00:34 42.1 °F /  5.6 °C 38.8 °F /  3.8 °C 30.26in /  1024.6hPa Calm     88% 0.00in /  0mm 0 W/m2
00:39 42.1 °F /  5.6 °C 38.8 °F /  3.8 °C 30.25in /  1024.3hPa Calm     88% 0.00in /  0mm 0 W/m2
00:44 42 °F /  5.6 °C 38.7 °F /  3.7 °C 30.25in /  1024.3hPa Calm     88% 0.00in /  0mm 0 W/m2
00:49 42 °F /  5.6 °C 38.8 °F /  3.8 °C 30.25in /  1024.3hPa Calm     88% 0.00in /  0mm 0 W/m2
00:54 41.9 °F /  5.5 °C 38.7 °F /  3.7 °C 30.25in /  1024.3hPa Calm     88% 0.00in /  0mm 0 W/m2
00:59 42.1 °F /  5.6 °C 38.8 °F /  3.8 °C 30.25in /  1024.3hPa Calm     88% 0.00in /  0mm 0 W/m2
01:04 42.1 °F /  5.6 °C 38.9 °F /  3.8 °C 30.25in /  1024.3hPa Calm     88.4% 0.00in /  0mm 0 W/m2
01:09 42.1 °F /  5.6 °C 39 °F /  3.9 °C 30.25in /  1024.3hPa Calm     89% 0.00in /  0mm 0 W/m2
01:14 42.2 °F /  5.7 °C 39.1 °F /  3.9 °C 30.25in /  1024.3hPa Calm     89% 0.00in /  0mm 0 W/m2
01:19 42.4 °F /  5.8 °C 39.4 °F /  4.1 °C 30.25in /  1024.3hPa Calm     89% 0.00in /  0mm 0 W/m2
01:24 42.6 °F /  5.9 °C 39.6 °F /  4.2 °C 30.25in /  1024.3hPa Calm     89% 0.00in /  0mm 0 W/m2
01:29 42.8 °F /  6 °C 39.7 °F /  4.3 °C 30.25in /  1024.3hPa Calm     89% 0.00in /  0mm 0 W/m2
01:34 42.8 °F /  6 °C 39.7 °F /  4.3 °C 30.25in /  1024.3hPa Calm     89% 0.00in /  0mm 0 W/m2
01:39 43 °F /  6.1 °C 39.8 °F /  4.3 °C 30.25in /  1024.3hPa Calm     89% 0.00in /  0mm 0 W/m2
01:44 43 °F /  6.1 °C 39.9 °F /  4.4 °C 30.24in /  1023.9hPa Calm     89% 0.00in /  0mm 0 W/m2
01:49 43 °F /  6.1 °C 39.9 °F /  4.4 °C 30.24in /  1023.9hPa Calm     89% 0.00in /  0mm 0 W/m2
01:54 43 °F /  6.1 °C 39.9 °F /  4.4 °C 30.24in /  1023.9hPa Calm     89% 0.00in /  0mm 0 W/m2
01:59 43 °F /  6.1 °C 39.9 °F /  4.4 °C 30.24in /  1023.9hPa Calm     89% 0.00in /  0mm 0 W/m2
02:04 43 °F /  6.1 °C 39.9 °F /  4.4 °C 30.24in /  1023.9hPa ESE 2mph /  3.2km/h 5mph /  8km/h 89% 0.00in /  0mm 0 W/m2
02:09 43 °F /  6.1 °C 39.9 °F /  4.4 °C 30.22in /  1023.2hPa ESE 1.6mph /  2.6km/h 8mph /  12.9km/h 89% 0.00in /  0mm 0 W/m2
02:14 43 °F /  6.1 °C 39.9 °F /  4.4 °C 30.22in /  1023.2hPa ESE 0.8mph /  1.3km/h 3mph /  4.8km/h 89% 0.00in /  0mm 0 W/m2
02:19 43.2 °F /  6.2 °C 40.1 °F /  4.5 °C 30.22in /  1023.2hPa ESE 1.1mph /  1.8km/h 3mph /  4.8km/h 89% 0.00in /  0mm 0 W/m2
02:24 43.3 °F /  6.3 °C 40.3 °F /  4.6 °C 30.22in /  1023.2hPa Calm   2mph /  3.2km/h 89% 0.00in /  0mm 0 W/m2
02:29 43.3 °F /  6.3 °C 40.3 °F /  4.6 °C 30.22in /  1023.2hPa ESE 0.5mph /  0.8km/h 2mph /  3.2km/h 89% 0.00in /  0mm 0 W/m2
02:34 43.5 °F /  6.4 °C 40.5 °F /  4.7 °C 30.22in /  1023.2hPa ESE 0.2mph /  0.3km/h 1mph /  1.6km/h 89% 0.00in /  0mm 0 W/m2
02:39 43.7 °F /  6.5 °C 40.6 °F /  4.8 °C 30.22in /  1023.2hPa ESE 0.2mph /  0.3km/h 1mph /  1.6km/h 89% 0.00in /  0mm 0 W/m2
02:44 43.7 °F /  6.5 °C 40.6 °F /  4.8 °C 30.22in /  1023.2hPa Calm   2mph /  3.2km/h 89% 0.00in /  0mm 0 W/m2
02:49 43.7 °F /  6.5 °C 40.6 °F /  4.8 °C 30.22in /  1023.2hPa Calm   1mph /  1.6km/h 89% 0.00in /  0mm 0 W/m2
02:54 43.9 °F /  6.6 °C 40.8 °F /  4.9 °C 30.22in /  1023.2hPa ESE 0.4mph /  0.6km/h 2mph /  3.2km/h 89% 0.00in /  0mm 0 W/m2
02:59 43.9 °F /  6.6 °C 40.8 °F /  4.9 °C 30.22in /  1023.2hPa Calm   1mph /  1.6km/h 89% 0.00in /  0mm 0 W/m2
03:04 43.9 °F /  6.6 °C 40.8 °F /  4.9 °C 30.22in /  1023.2hPa ESE 0.8mph /  1.3km/h 3mph /  4.8km/h 89% 0.00in /  0mm 0 W/m2
03:09 43.8 °F /  6.6 °C 40.7 °F /  4.8 °C 30.21in /  1022.9hPa ESE 1.1mph /  1.8km/h 3mph /  4.8km/h 89% 0.00in /  0mm 0 W/m2
03:14 43.5 °F /  6.4 °C 40.5 °F /  4.7 °C 30.22in /  1023.2hPa ESE 0.2mph /  0.3km/h 1mph /  1.6km/h 89% 0.00in /  0mm 0 W/m2
03:19 43.3 °F /  6.3 °C 40.2 °F /  4.6 °C 30.22in /  1023.2hPa ESE 0.4mph /  0.6km/h 2mph /  3.2km/h 89% 0.00in /  0mm 0 W/m2
03:24 43.2 °F /  6.2 °C 40.1 °F /  4.5 °C 30.22in /  1023.2hPa ESE 0.2mph /  0.3km/h 1mph /  1.6km/h 89% 0.00in /  0mm 0 W/m2
03:29 43.2 °F /  6.2 °C 40.1 °F /  4.5 °C 30.21in /  1022.9hPa ESE 0.2mph /  0.3km/h 1mph /  1.6km/h 89% 0.00in /  0mm 0 W/m2
03:34 43.2 °F /  6.2 °C 40.1 °F /  4.5 °C 30.21in /  1022.9hPa Calm   1mph /  1.6km/h 89% 0.00in /  0mm 0 W/m2
03:39 43.2 °F /  6.2 °C 40.1 °F /  4.5 °C 30.21in /  1022.9hPa Calm     89% 0.00in /  0mm 0 W/m2
03:44 43.2 °F /  6.2 °C 40.1 °F /  4.5 °C 30.21in /  1022.9hPa Calm     89% 0.00in /  0mm 0 W/m2
03:49 43.2 °F /  6.2 °C 40.1 °F /  4.5 °C 30.21in /  1022.9hPa Calm     89% 0.00in /  0mm 0 W/m2
03:54 43.3 °F /  6.3 °C 40.3 °F /  4.6 °C 30.20in /  1022.6hPa Calm   1mph /  1.6km/h 89% 0.00in /  0mm 0 W/m2
03:59 43.4 °F /  6.3 °C 40.4 °F /  4.7 °C 30.20in /  1022.6hPa Calm   1mph /  1.6km/h 89% 0.00in /  0mm 0 W/m2
04:04 43.5 °F /  6.4 °C 40.5 °F /  4.7 °C 30.20in /  1022.6hPa ESE 0.2mph /  0.3km/h 1mph /  1.6km/h 89% 0.00in /  0mm 0 W/m2
04:09 43.5 °F /  6.4 °C 40.5 °F /  4.7 °C 30.19in /  1022.2hPa ESE 0.4mph /  0.6km/h 2mph /  3.2km/h 89% 0.00in /  0mm 0 W/m2
04:14 43.5 °F /  6.4 °C 40.5 °F /  4.7 °C 30.19in /  1022.2hPa Calm     89% 0.00in /  0mm 0 W/m2
04:19 43.6 °F /  6.4 °C 40.6 °F /  4.8 °C 30.19in /  1022.2hPa ESE 0.2mph /  0.3km/h 1mph /  1.6km/h 89% 0.00in /  0mm 0 W/m2
04:24 43.7 °F /  6.5 °C 40.8 °F /  4.9 °C 30.19in /  1022.2hPa Calm     89.6% 0.00in /  0mm 0 W/m2
04:29 43.8 °F /  6.6 °C 40.7 °F /  4.8 °C 30.19in /  1022.2hPa Calm     89% 0.00in /  0mm 0 W/m2
04:34 43.9 °F /  6.6 °C 40.8 °F /  4.9 °C 30.19in /  1022.2hPa ESE 0.5mph /  0.8km/h 2mph /  3.2km/h 89% 0.00in /  0mm 0 W/m2
04:39 43.9 °F /  6.6 °C 41.2 °F /  5.1 °C 30.19in /  1022.2hPa ESE 0.2mph /  0.3km/h 1mph /  1.6km/h 90% 0.00in /  0mm 0 W/m2
04:44 44.1 °F /  6.7 °C 41.4 °F /  5.2 °C 30.19in /  1022.2hPa ESE 0.2mph /  0.3km/h 1mph /  1.6km/h 90% 0.00in /  0mm 0 W/m2
04:49 44.2 °F /  6.8 °C 41.5 °F /  5.3 °C 30.19in /  1022.2hPa Calm   1mph /  1.6km/h 90% 0.00in /  0mm 0 W/m2
04:54 44.2 °F /  6.8 °C 41.5 °F /  5.3 °C 30.19in /  1022.2hPa Calm   1mph /  1.6km/h 90% 0.00in /  0mm 0 W/m2
04:59 44.2 °F /  6.8 °C 41.5 °F /  5.3 °C 30.19in /  1022.2hPa Calm   1mph /  1.6km/h 90% 0.00in /  0mm 0 W/m2
05:04 44.4 °F /  6.9 °C 41.7 °F /  5.4 °C 30.19in /  1022.2hPa Calm     90% 0.00in /  0mm 0 W/m2
05:09 44.4 °F /  6.9 °C 41.7 °F /  5.4 °C 30.19in /  1022.2hPa ESE 0.4mph /  0.6km/h 2mph /  3.2km/h 90% 0.00in /  0mm 0 W/m2
05:14 44.4 °F /  6.9 °C 41.7 °F /  5.4 °C 30.19in /  1022.2hPa ESE 0.2mph /  0.3km/h 2mph /  3.2km/h 90% 0.00in /  0mm 0 W/m2
05:19 44.6 °F /  7 °C 41.9 °F /  5.5 °C 30.19in /  1022.2hPa Calm     90% 0.00in /  0mm 0 W/m2
05:24 44.6 °F /  7 °C 41.9 °F /  5.5 °C 30.19in /  1022.2hPa Calm     90% 0.00in /  0mm 0 W/m2
05:29 44.8 °F /  7.1 °C 42.1 °F /  5.6 °C 30.19in /  1022.2hPa Calm     90% 0.00in /  0mm 0 W/m2
05:34 44.8 °F /  7.1 °C 42.1 °F /  5.6 °C 30.19in /  1022.2hPa Calm     90% 0.00in /  0mm 0 W/m2
05:39 44.8 °F /  7.1 °C 42.1 °F /  5.6 °C 30.19in /  1022.2hPa Calm     90% 0.00in /  0mm 0 W/m2
05:44 44.9 °F /  7.2 °C 42.2 °F /  5.7 °C 30.19in /  1022.2hPa Calm     90% 0.00in /  0mm 0 W/m2
05:49 45 °F /  7.2 °C 42.3 °F /  5.7 °C 30.18in /  1021.9hPa Calm   1mph /  1.6km/h 90% 0.00in /  0mm 0 W/m2
05:54 45 °F /  7.2 °C 42.3 °F /  5.7 °C 30.18in /  1021.9hPa ESE 0.2mph /  0.3km/h 1mph /  1.6km/h 90% 0.00in /  0mm 0 W/m2
05:59 45 °F /  7.2 °C 42.3 °F /  5.7 °C 30.18in /  1021.9hPa Calm   1mph /  1.6km/h 90% 0.00in /  0mm 0 W/m2
06:04 45 °F /  7.2 °C 42.3 °F /  5.7 °C 30.18in /  1021.9hPa Calm   1mph /  1.6km/h 90% 0.00in /  0mm 0 W/m2
06:09 45 °F /  7.2 °C 42.3 °F /  5.7 °C 30.18in /  1021.9hPa Calm   1mph /  1.6km/h 90% 0.00in /  0mm 0 W/m2
06:14 45 °F /  7.2 °C 42.3 °F /  5.7 °C 30.18in /  1021.9hPa Calm   1mph /  1.6km/h 90% 0.00in /  0mm 0 W/m2
06:19 45 °F /  7.2 °C 42.3 °F /  5.7 °C 30.18in /  1021.9hPa Calm   1mph /  1.6km/h 90% 0.00in /  0mm 0 W/m2
06:24 45 °F /  7.2 °C 42.3 °F /  5.7 °C 30.17in /  1021.6hPa ESE 0.4mph /  0.6km/h 1mph /  1.6km/h 90% 0.00in /  0mm 0 W/m2
06:29 45.1 °F /  7.3 °C 42.4 °F /  5.8 °C 30.17in /  1021.6hPa Calm   1mph /  1.6km/h 90% 0.00in /  0mm 0 W/m2
06:34 45.1 °F /  7.3 °C 42.4 °F /  5.8 °C 30.17in /  1021.6hPa Calm   1mph /  1.6km/h 90% 0.00in /  0mm 0 W/m2
06:39 45.3 °F /  7.4 °C 42.6 °F /  5.9 °C 30.17in /  1021.6hPa ESE 0.4mph /  0.6km/h 2mph /  3.2km/h 90% 0.00in /  0mm 0 W/m2
06:44 45.3 °F /  7.4 °C 42.6 °F /  5.9 °C 30.17in /  1021.6hPa Calm   2mph /  3.2km/h 90% 0.00in /  0mm 0 W/m2
06:49 45.4 °F /  7.4 °C 42.7 °F /  5.9 °C 30.17in /  1021.6hPa Calm   1mph /  1.6km/h 90% 0.00in /  0mm 0 W/m2
06:54 45.5 °F /  7.5 °C 42.8 °F /  6 °C 30.17in /  1021.6hPa Calm   1mph /  1.6km/h 90% 0.00in /  0mm 0 W/m2
06:59 45.5 °F /  7.5 °C 42.8 °F /  6 °C 30.17in /  1021.6hPa Calm   1mph /  1.6km/h 90% 0.00in /  0mm 0 W/m2
07:04 45.5 °F /  7.5 °C 42.8 °F /  6 °C 30.18in /  1021.9hPa Calm     90% 0.00in /  0mm 0 W/m2
07:09 45.5 °F /  7.5 °C 42.8 °F /  6 °C 30.18in /  1021.9hPa Calm     90% 0.00in /  0mm 0 W/m2
07:13 45.5 °F /  7.5 °C 42.8 °F /  6 °C 30.18in /  1021.9hPa ESE 0.2mph /  0.3km/h 1mph /  1.6km/h 90% 0.00in /  0mm 0 W/m2
07:19 45.5 °F /  7.5 °C 42.8 °F /  6 °C 30.18in /  1021.9hPa Calm     90% 0.00in /  0mm 0 W/m2
07:24 45.5 °F /  7.5 °C 42.8 °F /  6 °C 30.18in /  1021.9hPa Calm     90% 0.00in /  0mm 0 W/m2
07:29 46.3 °F /  7.9 °C 43.6 °F /  6.4 °C 30.18in /  1021.9hPa Calm     90.2% 0.00in /  0mm 0 W/m2
07:34 47 °F /  8.3 °C 44.3 °F /  6.8 °C 30.18in /  1021.9hPa Calm     90% 0.00in /  0mm 0 W/m2
07:39 47.3 °F /  8.5 °C 44.7 °F /  7.1 °C 30.18in /  1021.9hPa Calm     90.6% 0.00in /  0mm 0 W/m2
07:44 47.9 °F /  8.8 °C 45.2 °F /  7.3 °C 30.18in /  1021.9hPa Calm     90.4% 0.00in /  0mm 7 W/m2
07:49 47.8 °F /  8.8 °C 45.1 °F /  7.3 °C 30.18in /  1021.9hPa Calm     90.2% 0.00in /  0mm 12 W/m2
07:54 47.2 °F /  8.4 °C 44.5 °F /  6.9 °C 30.18in /  1021.9hPa Calm     90% 0.00in /  0mm 14 W/m2
07:59 48.1 °F /  8.9 °C 45.3 °F /  7.4 °C 30.17in /  1021.6hPa Calm     90% 0.00in /  0mm 16 W/m2
08:04 49.5 °F /  9.7 °C 46.6 °F /  8.1 °C 30.17in /  1021.6hPa Calm     90% 0.00in /  0mm 19 W/m2
08:09 50.6 °F /  10.3 °C 47.7 °F /  8.7 °C 30.17in /  1021.6hPa ESE 0.4mph /  0.6km/h 2mph /  3.2km/h 90% 0.00in /  0mm 23 W/m2
08:14 51 °F /  10.6 °C 47.9 °F /  8.8 °C 30.16in /  1021.2hPa ESE 0.2mph /  0.3km/h 2mph /  3.2km/h 89.2% 0.00in /  0mm 30 W/m2
08:19 50.7 °F /  10.4 °C 47.4 °F /  8.6 °C 30.16in /  1021.2hPa ESE 0.4mph /  0.6km/h 2mph /  3.2km/h 88.2% 0.00in /  0mm 37 W/m2
08:24 50 °F /  10 °C 46.6 °F /  8.1 °C 30.16in /  1021.2hPa Calm     88% 0.00in /  0mm 40 W/m2
08:29 49.1 °F /  9.5 °C 45.3 °F /  7.4 °C 30.16in /  1021.2hPa Calm     87% 0.00in /  0mm 56 W/m2
08:34 48.5 °F /  9.2 °C 44.8 °F /  7.1 °C 30.16in /  1021.2hPa Calm     87% 0.00in /  0mm 81 W/m2
08:39 49.1 °F /  9.5 °C 45.5 °F /  7.5 °C 30.16in /  1021.2hPa Calm     87.4% 0.00in /  0mm 79 W/m2
08:44 50.9 °F /  10.5 °C 47.4 °F /  8.6 °C 30.16in /  1021.2hPa ESE 1.1mph /  1.8km/h 3mph /  4.8km/h 87.8% 0.00in /  0mm 69 W/m2
08:49 50.9 °F /  10.5 °C 47.1 °F /  8.4 °C 30.15in /  1020.9hPa ESE 1.6mph /  2.6km/h 3mph /  4.8km/h 86.6% 0.00in /  0mm 65 W/m2
08:54 50.7 °F /  10.4 °C 46.8 °F /  8.2 °C 30.15in /  1020.9hPa ESE 0.4mph /  0.6km/h 2mph /  3.2km/h 86% 0.00in /  0mm 93 W/m2
08:59 51.3 °F /  10.7 °C 47.3 °F /  8.5 °C 30.15in /  1020.9hPa Calm   1mph /  1.6km/h 86% 0.00in /  0mm 105 W/m2
09:04 52.2 °F /  11.2 °C 47.9 °F /  8.8 °C 30.15in /  1020.9hPa ESE 0.2mph /  0.3km/h 2mph /  3.2km/h 85.4% 0.00in /  0mm 125 W/m2
09:09 52.9 °F /  11.6 °C 48.5 °F /  9.2 °C 30.15in /  1020.9hPa Calm   2mph /  3.2km/h 84.8% 0.00in /  0mm 163 W/m2
09:14 53.6 °F /  12 °C 48.7 °F /  9.3 °C 30.15in /  1020.9hPa ESE 0.4mph /  0.6km/h 2mph /  3.2km/h 83.6% 0.00in /  0mm 204 W/m2
09:19 54.5 °F /  12.5 °C 49.4 °F /  9.7 °C 30.15in /  1020.9hPa SE 1.2mph /  1.9km/h 4mph /  6.4km/h 82.8% 0.00in /  0mm 236 W/m2
09:24 54.2 °F /  12.3 °C 48.5 °F /  9.2 °C 30.16in /  1021.2hPa SSE 2mph /  3.2km/h 4mph /  6.4km/h 81.2% 0.00in /  0mm 236 W/m2
09:29 54 °F /  12.2 °C 48.2 °F /  9 °C 30.16in /  1021.2hPa South 0.7mph /  1.1km/h 3mph /  4.8km/h 80.8% 0.00in /  0mm 287 W/m2
09:34 54.7 °F /  12.6 °C 48.9 °F /  9.4 °C 30.16in /  1021.2hPa South 1.1mph /  1.8km/h 2mph /  3.2km/h 80.8% 0.00in /  0mm 308 W/m2
09:39 55.6 °F /  13.1 °C 49.3 °F /  9.6 °C 30.16in /  1021.2hPa South 0.4mph /  0.6km/h 3mph /  4.8km/h 79.6% 0.00in /  0mm 272 W/m2
09:44 55.9 °F /  13.3 °C 49.5 °F /  9.7 °C 30.17in /  1021.6hPa Calm   2mph /  3.2km/h 78.8% 0.00in /  0mm 223 W/m2
09:49 56.3 °F /  13.5 °C 49.5 °F /  9.7 °C 30.16in /  1021.2hPa South 1.7mph /  2.7km/h 5mph /  8km/h 78% 0.00in /  0mm 132 W/m2
09:54 56.2 °F /  13.4 °C 49.2 °F /  9.6 °C 30.17in /  1021.6hPa WSW 3.4mph /  5.5km/h 5mph /  8km/h 77.4% 0.00in /  0mm 123 W/m2
09:59 55.7 °F /  13.2 °C 48.9 °F /  9.4 °C 30.17in /  1021.6hPa WSW 5mph /  8km/h 8mph /  12.9km/h 78% 0.00in /  0mm 127 W/m2
10:04 55.5 °F /  13.1 °C 48.8 °F /  9.3 °C 30.17in /  1021.6hPa SW 2.5mph /  4km/h 7mph /  11.3km/h 78% 0.00in /  0mm 125 W/m2
10:09 55.5 °F /  13.1 °C 49 °F /  9.4 °C 30.17in /  1021.6hPa SW 3.2mph /  5.1km/h 5mph /  8km/h 79% 0.00in /  0mm 114 W/m2
10:14 55.3 °F /  12.9 °C 48.8 °F /  9.3 °C 30.17in /  1021.6hPa SW 3.3mph /  5.3km/h 5mph /  8km/h 79% 0.00in /  0mm 139 W/m2
10:19 55.3 °F /  12.9 °C 48.8 °F /  9.3 °C 30.17in /  1021.6hPa SW 1.6mph /  2.6km/h 5mph /  8km/h 79% 0.00in /  0mm 165 W/m2
10:24 55.7 °F /  13.2 °C 49.2 °F /  9.6 °C 30.17in /  1021.6hPa SW 1.2mph /  1.9km/h 4mph /  6.4km/h 79% 0.00in /  0mm 130 W/m2
10:29 55.8 °F /  13.2 °C 49.3 °F /  9.6 °C 30.17in /  1021.6hPa SW 1.3mph /  2.1km/h 4mph /  6.4km/h 79% 0.00in /  0mm 139 W/m2
10:34 55.8 °F /  13.2 °C 49.3 °F /  9.6 °C 30.16in /  1021.2hPa SW 1.7mph /  2.7km/h 4mph /  6.4km/h 79% 0.00in /  0mm 148 W/m2
10:39 55.9 °F /  13.3 °C 49.4 °F /  9.7 °C 30.16in /  1021.2hPa SW 0.4mph /  0.6km/h 2mph /  3.2km/h 79% 0.00in /  0mm 141 W/m2
10:44 55.9 °F /  13.3 °C 49.5 °F /  9.7 °C 30.16in /  1021.2hPa SW 1.7mph /  2.7km/h 3mph /  4.8km/h 79% 0.00in /  0mm 380 W/m2
10:49 56.5 °F /  13.6 °C 50.2 °F /  10.1 °C 30.16in /  1021.2hPa SW 0.6mph /  1km/h 3mph /  4.8km/h 79.6% 0.00in /  0mm 388 W/m2
10:54 57.3 °F /  14.1 °C 50.8 °F /  10.4 °C 30.16in /  1021.2hPa SW 1.4mph /  2.3km/h 4mph /  6.4km/h 79% 0.00in /  0mm 374 W/m2
10:58 57.7 °F /  14.3 °C 51.1 °F /  10.6 °C 30.15in /  1020.9hPa SW 1.5mph /  2.4km/h 4mph /  6.4km/h 78.8% 0.00in /  0mm 396 W/m2
11:04 58.4 °F /  14.7 °C 51.3 °F /  10.7 °C 30.16in /  1021.2hPa SW 4.8mph /  7.7km/h 9mph /  14.5km/h 77.4% 0.00in /  0mm 390 W/m2
11:09 58.5 °F /  14.7 °C 50.9 °F /  10.5 °C 30.16in /  1021.2hPa SW 4.9mph /  7.9km/h 10mph /  16.1km/h 76.2% 0.00in /  0mm 425 W/m2
11:14 58.4 °F /  14.7 °C 50.7 °F /  10.4 °C 30.15in /  1020.9hPa SW 6mph /  9.7km/h 10mph /  16.1km/h 75.6% 0.00in /  0mm 526 W/m2
11:19 58.7 °F /  14.8 °C 50.8 °F /  10.4 °C 30.15in /  1020.9hPa SW 5.7mph /  9.2km/h 10mph /  16.1km/h 75% 0.00in /  0mm 566 W/m2
11:24 58.7 °F /  14.8 °C 50.8 °F /  10.4 °C 30.15in /  1020.9hPa SW 5.4mph /  8.7km/h 11mph /  17.7km/h 75% 0.00in /  0mm 624 W/m2
11:29 58.8 °F /  14.9 °C 50.9 °F /  10.5 °C 30.15in /  1020.9hPa SSW 2.5mph /  4km/h 7mph /  11.3km/h 75% 0.00in /  0mm 281 W/m2
11:34 59.2 °F /  15.1 °C 51.1 °F /  10.6 °C 30.15in /  1020.9hPa WSW 3.9mph /  6.3km/h 9mph /  14.5km/h 74.4% 0.00in /  0mm 257 W/m2
11:39 59 °F /  15 °C 50.6 °F /  10.3 °C 30.15in /  1020.9hPa SW 5.6mph /  9km/h 13mph /  20.9km/h 73.8% 0.00in /  0mm 304 W/m2
11:44 58.8 °F /  14.9 °C 50.2 °F /  10.1 °C 30.15in /  1020.9hPa SW 3.7mph /  6km/h 9mph /  14.5km/h 73% 0.00in /  0mm 246 W/m2
11:49 59.2 °F /  15.1 °C 50.5 °F /  10.3 °C 30.15in /  1020.9hPa WSW 4.5mph /  7.2km/h 10mph /  16.1km/h 73% 0.00in /  0mm 237 W/m2
11:54 58.9 °F /  14.9 °C 49.9 °F /  9.9 °C 30.15in /  1020.9hPa WSW 6.8mph /  10.9km/h 13mph /  20.9km/h 72% 0.00in /  0mm 287 W/m2
11:59 58.8 °F /  14.9 °C 49.8 °F /  9.9 °C 30.15in /  1020.9hPa West 5.2mph /  8.4km/h 10mph /  16.1km/h 72% 0.00in /  0mm 287 W/m2
12:04 58.8 °F /  14.9 °C 49.8 °F /  9.9 °C 30.15in /  1020.9hPa WSW 6.9mph /  11.1km/h 11mph /  17.7km/h 72% 0.00in /  0mm 367 W/m2
12:09 59.3 °F /  15.2 °C 50.3 °F /  10.2 °C 30.15in /  1020.9hPa SW 4.1mph /  6.6km/h 12mph /  19.3km/h 72% 0.00in /  0mm 459 W/m2
12:14 59.7 °F /  15.4 °C 50.4 °F /  10.2 °C 30.15in /  1020.9hPa SW 3.7mph /  6km/h 12mph /  19.3km/h 71% 0.00in /  0mm 596 W/m2
12:19 60.1 °F /  15.6 °C 50.5 °F /  10.3 °C 30.14in /  1020.5hPa SW 5.4mph /  8.7km/h 9mph /  14.5km/h 70.6% 0.00in /  0mm 561 W/m2
12:24 60.3 °F /  15.7 °C 50.4 °F /  10.2 °C 30.14in /  1020.5hPa SSW 5.2mph /  8.4km/h 14mph /  22.5km/h 70% 0.00in /  0mm 380 W/m2
12:29 59.9 °F /  15.5 °C 50.3 °F /  10.2 °C 30.14in /  1020.5hPa SSW 7.1mph /  11.4km/h 13mph /  20.9km/h 70.6% 0.00in /  0mm 359 W/m2
12:34 59.5 °F /  15.3 °C 50.2 °F /  10.1 °C 30.14in /  1020.5hPa SSW 7.2mph /  11.6km/h 12mph /  19.3km/h 71% 0.00in /  0mm 343 W/m2
12:39 59.5 °F /  15.3 °C 50.2 °F /  10.1 °C 30.14in /  1020.5hPa SW 7.1mph /  11.4km/h 14mph /  22.5km/h 71% 0.00in /  0mm 420 W/m2
12:44 59.9 °F /  15.5 °C 50.5 °F /  10.3 °C 30.13in /  1020.2hPa SSW 6mph /  9.7km/h 12mph /  19.3km/h 71% 0.00in /  0mm 554 W/m2
12:49 60.6 °F /  15.9 °C 51.1 °F /  10.6 °C 30.13in /  1020.2hPa SW 4.3mph /  6.9km/h 11mph /  17.7km/h 70.8% 0.00in /  0mm 555 W/m2
12:54 60.8 °F /  16 °C 50.8 °F /  10.4 °C 30.13in /  1020.2hPa SW 6.5mph /  10.5km/h 12mph /  19.3km/h 69.8% 0.00in /  0mm 413 W/m2
12:59 60.8 °F /  16 °C 50.9 °F /  10.5 °C 30.13in /  1020.2hPa SW 5.8mph /  9.3km/h 11mph /  17.7km/h 70% 0.00in /  0mm 325 W/m2
13:04 60.5 °F /  15.8 °C 50.6 °F /  10.3 °C 30.13in /  1020.2hPa SW 9.2mph /  14.8km/h 14mph /  22.5km/h 70% 0.00in /  0mm 540 W/m2
13:09 60.4 °F /  15.8 °C 50.5 °F /  10.3 °C 30.13in /  1020.2hPa SW 8.2mph /  13.2km/h 13mph /  20.9km/h 70% 0.00in /  0mm 540 W/m2
13:14 60.9 °F /  16.1 °C 51.2 °F /  10.7 °C 30.13in /  1020.2hPa WSW 5.2mph /  8.4km/h 11mph /  17.7km/h 70.6% 0.00in /  0mm 461 W/m2
13:19 61.4 °F /  16.3 °C 51.5 °F /  10.8 °C 30.12in /  1019.9hPa SSW 5.1mph /  8.2km/h 11mph /  17.7km/h 69.8% 0.00in /  0mm 503 W/m2
13:24 61.6 °F /  16.4 °C 51.5 °F /  10.8 °C 30.12in /  1019.9hPa WSW 6.5mph /  10.5km/h 11mph /  17.7km/h 69.2% 0.00in /  0mm 503 W/m2
13:29 61.5 °F /  16.4 °C 51.3 °F /  10.7 °C 30.12in /  1019.9hPa West 5.3mph /  8.5km/h 10mph /  16.1km/h 69.2% 0.00in /  0mm 309 W/m2
13:34 61.5 °F /  16.4 °C 51.3 °F /  10.7 °C 30.12in /  1019.9hPa SW 4.7mph /  7.6km/h 10mph /  16.1km/h 69% 0.00in /  0mm 274 W/m2
13:39 61.3 °F /  16.3 °C 51.2 °F /  10.7 °C 30.12in /  1019.9hPa SW 4.3mph /  6.9km/h 9mph /  14.5km/h 69.4% 0.00in /  0mm 297 W/m2
13:44 61.3 °F /  16.3 °C 51.2 °F /  10.7 °C 30.12in /  1019.9hPa WSW 5.2mph /  8.4km/h 12mph /  19.3km/h 69.4% 0.00in /  0mm 239 W/m2
13:49 61.3 °F /  16.3 °C 51.2 °F /  10.7 °C 30.11in /  1019.5hPa WSW 5.4mph /  8.7km/h 12mph /  19.3km/h 69.4% 0.00in /  0mm 388 W/m2
13:54 61.3 °F /  16.3 °C 51.3 °F /  10.7 °C 30.11in /  1019.5hPa SW 4.6mph /  7.4km/h 10mph /  16.1km/h 69.8% 0.00in /  0mm 346 W/m2
13:59 61.4 °F /  16.3 °C 51.5 °F /  10.8 °C 30.11in /  1019.5hPa SW 6.2mph /  10km/h 12mph /  19.3km/h 70% 0.00in /  0mm 244 W/m2
14:04 60.9 °F /  16.1 °C 51.1 °F /  10.6 °C 30.11in /  1019.5hPa SW 6.2mph /  10km/h 12mph /  19.3km/h 70.2% 0.00in /  0mm 220 W/m2
14:09 60.6 °F /  15.9 °C 51.1 °F /  10.6 °C 30.11in /  1019.5hPa WSW 5.6mph /  9km/h 11mph /  17.7km/h 71% 0.00in /  0mm 206 W/m2
14:14 60.6 °F /  15.9 °C 51.5 °F /  10.8 °C 30.11in /  1019.5hPa WSW 5.7mph /  9.2km/h 11mph /  17.7km/h 71.8% 0.00in /  0mm 199 W/m2
14:19 60.6 °F /  15.9 °C 51.6 °F /  10.9 °C 30.11in /  1019.5hPa WSW 5.1mph /  8.2km/h 9mph /  14.5km/h 72% 0.00in /  0mm 200 W/m2
14:24 60.6 °F /  15.9 °C 51.6 °F /  10.9 °C 30.11in /  1019.5hPa SW 4.8mph /  7.7km/h 7mph /  11.3km/h 72% 0.00in /  0mm 206 W/m2
14:29 60.5 °F /  15.8 °C 51.5 °F /  10.8 °C 30.11in /  1019.5hPa SW 6.4mph /  10.3km/h 10mph /  16.1km/h 71.8% 0.00in /  0mm 199 W/m2
14:34 60.4 °F /  15.8 °C 51.4 °F /  10.8 °C 30.11in /  1019.5hPa WSW 4.5mph /  7.2km/h 10mph /  16.1km/h 72% 0.00in /  0mm 192 W/m2
14:39 60.4 °F /  15.8 °C 51.4 °F /  10.8 °C 30.11in /  1019.5hPa WSW 4.5mph /  7.2km/h 8mph /  12.9km/h 72% 0.00in /  0mm 186 W/m2
14:44 60.4 °F /  15.8 °C 51.4 °F /  10.8 °C 30.11in /  1019.5hPa SW 4.8mph /  7.7km/h 8mph /  12.9km/h 72% 0.00in /  0mm 192 W/m2
14:49 60.4 °F /  15.8 °C 51.4 °F /  10.8 °C 30.11in /  1019.5hPa SW 4.4mph /  7.1km/h 8mph /  12.9km/h 72% 0.00in /  0mm 214 W/m2
14:54 60.6 °F /  15.9 °C 51.6 °F /  10.9 °C 30.10in /  1019.2hPa SW 3mph /  4.8km/h 7mph /  11.3km/h 72% 0.00in /  0mm 234 W/m2
14:59 60.8 °F /  16 °C 51.5 °F /  10.8 °C 30.10in /  1019.2hPa SSW 3.5mph /  5.6km/h 8mph /  12.9km/h 71.4% 0.00in /  0mm 223 W/m2
15:04 60.8 °F /  16 °C 51.3 °F /  10.7 °C 30.10in /  1019.2hPa WSW 4.7mph /  7.6km/h 8mph /  12.9km/h 71% 0.00in /  0mm 229 W/m2
15:09 60.8 °F /  16 °C 51.3 °F /  10.7 °C 30.10in /  1019.2hPa SW 7.2mph /  11.6km/h 10mph /  16.1km/h 71% 0.00in /  0mm 190 W/m2
15:14 60.6 °F /  15.9 °C 50.9 °F /  10.5 °C 30.10in /  1019.2hPa WSW 5.9mph /  9.5km/h 10mph /  16.1km/h 70.4% 0.00in /  0mm 162 W/m2
15:19 60.5 °F /  15.8 °C 50.3 °F /  10.2 °C 30.10in /  1019.2hPa SW 4.8mph /  7.7km/h 11mph /  17.7km/h 69% 0.00in /  0mm 144 W/m2
15:24 60.4 °F /  15.8 °C 50.2 °F /  10.1 °C 30.10in /  1019.2hPa SW 5mph /  8km/h 11mph /  17.7km/h 69% 0.00in /  0mm 121 W/m2
15:29 60.4 °F /  15.8 °C 50.2 °F /  10.1 °C 30.10in /  1019.2hPa SSW 5.4mph /  8.7km/h 8mph /  12.9km/h 69% 0.00in /  0mm 118 W/m2
15:34 60.4 °F /  15.8 °C 50.2 °F /  10.1 °C 30.10in /  1019.2hPa SW 4.1mph /  6.6km/h 7mph /  11.3km/h 69% 0.00in /  0mm 100 W/m2
15:39 60.4 °F /  15.8 °C 50.2 °F /  10.1 °C 30.10in /  1019.2hPa SW 3.6mph /  5.8km/h 7mph /  11.3km/h 69% 0.00in /  0mm 100 W/m2
15:44 60.4 °F /  15.8 °C 50.2 °F /  10.1 °C 30.10in /  1019.2hPa WSW 3.9mph /  6.3km/h 6mph /  9.7km/h 69% 0.00in /  0mm 93 W/m2
15:49 60.3 °F /  15.7 °C 50.2 °F /  10.1 °C 30.10in /  1019.2hPa WSW 4.8mph /  7.7km/h 9mph /  14.5km/h 69.2% 0.00in /  0mm 77 W/m2
15:54 60.3 °F /  15.7 °C 50.4 °F /  10.2 °C 30.10in /  1019.2hPa SW 2.5mph /  4km/h 5mph /  8km/h 70% 0.00in /  0mm 56 W/m2
15:59 60.3 °F /  15.7 °C 50.4 °F /  10.2 °C 30.10in /  1019.2hPa SW 3mph /  4.8km/h 6mph /  9.7km/h 70% 0.00in /  0mm 65 W/m2
16:04 60.3 °F /  15.7 °C 50.8 °F /  10.4 °C 30.09in /  1018.8hPa SW 3.3mph /  5.3km/h 6mph /  9.7km/h 70.8% 0.00in /  0mm 70 W/m2
16:09 60.1 °F /  15.6 °C 50.7 °F /  10.4 °C 30.09in /  1018.8hPa WSW 4.5mph /  7.2km/h 11mph /  17.7km/h 71% 0.00in /  0mm 63 W/m2
16:14 60.1 °F /  15.6 °C 51 °F /  10.6 °C 30.09in /  1018.8hPa SW 4.4mph /  7.1km/h 8mph /  12.9km/h 71.8% 0.00in /  0mm 63 W/m2
16:19 60 °F /  15.6 °C 51 °F /  10.6 °C 30.09in /  1018.8hPa SW 4.6mph /  7.4km/h 8mph /  12.9km/h 72% 0.00in /  0mm 54 W/m2
16:24 59.9 °F /  15.5 °C 51.2 °F /  10.7 °C 30.09in /  1018.8hPa SW 3.6mph /  5.8km/h 8mph /  12.9km/h 72.8% 0.00in /  0mm 49 W/m2
16:29 59.8 °F /  15.4 °C 51.2 °F /  10.7 °C 30.09in /  1018.8hPa SSW 6.2mph /  10km/h 10mph /  16.1km/h 73% 0.00in /  0mm 46 W/m2
16:34 59.5 °F /  15.3 °C 51.4 °F /  10.8 °C 30.09in /  1018.8hPa SW 4.8mph /  7.7km/h 13mph /  20.9km/h 74.2% 0.00in /  0mm 33 W/m2
16:39 59.5 °F /  15.3 °C 51.6 °F /  10.9 °C 30.09in /  1018.8hPa WSW 5.6mph /  9km/h 10mph /  16.1km/h 75% 0.00in /  0mm 32 W/m2
16:44 59.4 °F /  15.2 °C 51.5 °F /  10.8 °C 30.09in /  1018.8hPa SW 4.1mph /  6.6km/h 9mph /  14.5km/h 75.2% 0.00in /  0mm 35 W/m2
16:49 59.1 °F /  15.1 °C 51.5 °F /  10.8 °C 30.09in /  1018.8hPa SW 5.7mph /  9.2km/h 10mph /  16.1km/h 76% 0.00in /  0mm 37 W/m2
16:54 58.8 °F /  14.9 °C 51.6 °F /  10.9 °C 30.08in /  1018.5hPa WSW 5.8mph /  9.3km/h 10mph /  16.1km/h 76.8% 0.00in /  0mm 44 W/m2
16:59 58.8 °F /  14.9 °C 51.6 °F /  10.9 °C 30.08in /  1018.5hPa SW 2mph /  3.2km/h 9mph /  14.5km/h 77% 0.00in /  0mm 51 W/m2
17:04 58.8 °F /  14.9 °C 51.9 °F /  11.1 °C 30.08in /  1018.5hPa SW 4.8mph /  7.7km/h 12mph /  19.3km/h 77.8% 0.00in /  0mm 51 W/m2
17:09 58.5 °F /  14.7 °C 51.6 °F /  10.9 °C 30.08in /  1018.5hPa SW 7mph /  11.3km/h 12mph /  19.3km/h 78% 0.00in /  0mm 44 W/m2
17:14 58 °F /  14.4 °C 51.4 °F /  10.8 °C 30.08in /  1018.5hPa SSW 4.2mph /  6.8km/h 12mph /  19.3km/h 78.6% 0.00in /  0mm 39 W/m2
17:19 57.9 °F /  14.4 °C 51.4 °F /  10.8 °C 30.08in /  1018.5hPa South 3.3mph /  5.3km/h 10mph /  16.1km/h 79% 0.00in /  0mm 37 W/m2
17:24 57.9 °F /  14.4 °C 51.4 °F /  10.8 °C 30.07in /  1018.2hPa SSW 3.1mph /  5km/h 8mph /  12.9km/h 79% 0.00in /  0mm 39 W/m2
17:29 57.9 °F /  14.4 °C 51.7 °F /  10.9 °C 30.08in /  1018.5hPa South 1.9mph /  3.1km/h 7mph /  11.3km/h 79.8% 0.00in /  0mm 28 W/m2
17:34 57.9 °F /  14.4 °C 51.8 °F /  11 °C 30.08in /  1018.5hPa SSW 2.9mph /  4.7km/h 7mph /  11.3km/h 80% 0.00in /  0mm 16 W/m2
17:39 57.8 °F /  14.3 °C 51.8 °F /  11 °C 30.08in /  1018.5hPa SSW 4.2mph /  6.8km/h 9mph /  14.5km/h 80.2% 0.00in /  0mm 16 W/m2
17:44 57.7 °F /  14.3 °C 52 °F /  11.1 °C 30.08in /  1018.5hPa SSW 3.2mph /  5.1km/h 7mph /  11.3km/h 81% 0.00in /  0mm 12 W/m2
17:49 57.7 °F /  14.3 °C 52 °F /  11.1 °C 30.07in /  1018.2hPa SSW 2.4mph /  3.9km/h 5mph /  8km/h 81% 0.00in /  0mm 18 W/m2
17:54 57.7 °F /  14.3 °C 52.2 °F /  11.2 °C 30.07in /  1018.2hPa South 2.2mph /  3.5km/h 4mph /  6.4km/h 81.8% 0.00in /  0mm 12 W/m2
17:59 57.7 °F /  14.3 °C 52.3 °F /  11.3 °C 30.08in /  1018.5hPa SSW 2.9mph /  4.7km/h 5mph /  8km/h 82% 0.00in /  0mm 11 W/m2
18:04 57.7 °F /  14.3 °C 52.3 °F /  11.3 °C 30.07in /  1018.2hPa SSW 2.5mph /  4km/h 5mph /  8km/h 82% 0.00in /  0mm 7 W/m2
18:09 57.8 °F /  14.3 °C 52.4 °F /  11.3 °C 30.08in /  1018.5hPa SSW 3.7mph /  6km/h 8mph /  12.9km/h 82% 0.00in /  0mm 5 W/m2
18:14 57.9 °F /  14.4 °C 52.4 °F /  11.3 °C 30.07in /  1018.2hPa SW 4.4mph /  7.1km/h 8mph /  12.9km/h 81.8% 0.00in /  0mm 5 W/m2
18:19 57.9 °F /  14.4 °C 52.4 °F /  11.3 °C 30.07in /  1018.2hPa SSW 3.7mph /  6km/h 8mph /  12.9km/h 81.8% 0.00in /  0mm 0 W/m2
18:24 57.7 °F /  14.3 °C 52.3 °F /  11.3 °C 30.08in /  1018.5hPa SSW 2.5mph /  4km/h 6mph /  9.7km/h 82% 0.00in /  0mm 0 W/m2
18:29 57.4 °F /  14.1 °C 52.3 °F /  11.3 °C 30.08in /  1018.5hPa SSW 4.1mph /  6.6km/h 7mph /  11.3km/h 82.8% 0.00in /  0mm 0 W/m2
18:34 57.1 °F /  13.9 °C 52.2 °F /  11.2 °C 30.08in /  1018.5hPa SW 4.7mph /  7.6km/h 7mph /  11.3km/h 83.8% 0.00in /  0mm 0 W/m2
18:39 57 °F /  13.9 °C 52.3 °F /  11.3 °C 30.08in /  1018.5hPa SSW 4mph /  6.4km/h 9mph /  14.5km/h 84.4% 0.00in /  0mm 0 W/m2
18:44 56.9 °F /  13.8 °C 52.4 °F /  11.3 °C 30.08in /  1018.5hPa SW 2.5mph /  4km/h 5mph /  8km/h 85% 0.00in /  0mm 0 W/m2
18:49 56.8 °F /  13.8 °C 52.3 °F /  11.3 °C 30.08in /  1018.5hPa SSW 2.5mph /  4km/h 5mph /  8km/h 85% 0.00in /  0mm 0 W/m2
18:54 56.8 °F /  13.8 °C 52.6 °F /  11.4 °C 30.08in /  1018.5hPa SSW 2.1mph /  3.4km/h 5mph /  8km/h 85.6% 0.00in /  0mm 0 W/m2
18:59 57 °F /  13.9 °C 52.9 °F /  11.6 °C 30.08in /  1018.5hPa WSW 3.2mph /  5.1km/h 7mph /  11.3km/h 86% 0.00in /  0mm 0 W/m2
19:04 57 °F /  13.9 °C 52.9 °F /  11.6 °C 30.08in /  1018.5hPa SW 3.1mph /  5km/h 6mph /  9.7km/h 86% 0.00in /  0mm 0 W/m2
19:09 57 °F /  13.9 °C 52.9 °F /  11.6 °C 30.08in /  1018.5hPa SW 4.6mph /  7.4km/h 8mph /  12.9km/h 86% 0.00in /  0mm 0 W/m2
19:14 57 °F /  13.9 °C 52.9 °F /  11.6 °C 30.07in /  1018.2hPa SW 4.9mph /  7.9km/h 10mph /  16.1km/h 86% 0.00in /  0mm 0 W/m2
19:19 57 °F /  13.9 °C 52.9 °F /  11.6 °C 30.07in /  1018.2hPa SSW 2.9mph /  4.7km/h 8mph /  12.9km/h 86% 0.00in /  0mm 0 W/m2
19:24 56.9 °F /  13.8 °C 52.8 °F /  11.6 °C 30.07in /  1018.2hPa SW 3.6mph /  5.8km/h 6mph /  9.7km/h 86% 0.00in /  0mm 0 W/m2
19:29 56.8 °F /  13.8 °C 52.7 °F /  11.5 °C 30.07in /  1018.2hPa WSW 3.7mph /  6km/h 8mph /  12.9km/h 86% 0.00in /  0mm 0 W/m2
19:34 56.8 °F /  13.8 °C 53.1 °F /  11.7 °C 30.07in /  1018.2hPa WSW 5.6mph /  9km/h 9mph /  14.5km/h 87% 0.00in /  0mm 0 W/m2
19:39 56.8 °F /  13.8 °C 53.1 °F /  11.7 °C 30.08in /  1018.5hPa WSW 2.8mph /  4.5km/h 6mph /  9.7km/h 87% 0.00in /  0mm 0 W/m2
19:44 56.8 °F /  13.8 °C 53.1 °F /  11.7 °C 30.08in /  1018.5hPa WSW 4.8mph /  7.7km/h 8mph /  12.9km/h 87% 0.00in /  0mm 0 W/m2
19:49 56.8 °F /  13.8 °C 53.1 °F /  11.7 °C 30.08in /  1018.5hPa SW 4.1mph /  6.6km/h 9mph /  14.5km/h 87% 0.00in /  0mm 0 W/m2
19:54 56.8 °F /  13.8 °C 53.1 °F /  11.7 °C 30.08in /  1018.5hPa WSW 1.4mph /  2.3km/h 7mph /  11.3km/h 87% 0.00in /  0mm 0 W/m2
19:59 56.8 °F /  13.8 °C 53.1 °F /  11.7 °C 30.08in /  1018.5hPa WSW 1.7mph /  2.7km/h 4mph /  6.4km/h 87.5% 0.00in /  0mm 0 W/m2
20:04 56.7 °F /  13.7 °C 53.1 °F /  11.7 °C 30.08in /  1018.5hPa West 2.7mph /  4.3km/h 4mph /  6.4km/h 88% 0.00in /  0mm 0 W/m2
20:09 56.5 °F /  13.6 °C 52.9 °F /  11.6 °C 30.08in /  1018.5hPa West 3.3mph /  5.3km/h 7mph /  11.3km/h 88% 0.00in /  0mm 0 W/m2
20:14 56.1 °F /  13.4 °C 52.7 °F /  11.5 °C 30.08in /  1018.5hPa West 3.6mph /  5.8km/h 5mph /  8km/h 88% 0.00in /  0mm 0 W/m2
20:19 56.1 °F /  13.4 °C 52.9 °F /  11.6 °C 30.08in /  1018.5hPa WSW 2.3mph /  3.7km/h 5mph /  8km/h 88.8% 0.00in /  0mm 0 W/m2
20:24 56 °F /  13.3 °C 52.8 °F /  11.6 °C 30.08in /  1018.5hPa West 2.1mph /  3.4km/h 4mph /  6.4km/h 89% 0.00in /  0mm 0 W/m2
20:29 55.9 °F /  13.3 °C 53 °F /  11.7 °C 30.08in /  1018.5hPa West 0.9mph /  1.4km/h 3mph /  4.8km/h 89.8% 0.00in /  0mm 0 W/m2
20:34 55.9 °F /  13.3 °C 53.1 °F /  11.7 °C 30.08in /  1018.5hPa West 1.7mph /  2.7km/h 4mph /  6.4km/h 90% 0.00in /  0mm 0 W/m2
20:39 55.8 °F /  13.2 °C 52.9 °F /  11.6 °C 30.08in /  1018.5hPa West 0.6mph /  1km/h 2mph /  3.2km/h 90% 0.00in /  0mm 0 W/m2
20:44 55.8 °F /  13.2 °C 52.9 °F /  11.6 °C 30.08in /  1018.5hPa West 1.6mph /  2.6km/h 3mph /  4.8km/h 90% 0.00in /  0mm 0 W/m2
20:49 55.8 °F /  13.2 °C 52.9 °F /  11.6 °C 30.08in /  1018.5hPa West 0.5mph /  0.8km/h 3mph /  4.8km/h 90% 0.00in /  0mm 0 W/m2
20:54 55.8 °F /  13.2 °C 53 °F /  11.7 °C 30.08in /  1018.5hPa West 1.6mph /  2.6km/h 3mph /  4.8km/h 90.4% 0.00in /  0mm 0 W/m2
20:59 55.8 °F /  13.2 °C 53.2 °F /  11.8 °C 30.08in /  1018.5hPa West 1.3mph /  2.1km/h 4mph /  6.4km/h 91% 0.00in /  0mm 0 W/m2
21:04 55.8 °F /  13.2 °C 53.2 °F /  11.8 °C 30.08in /  1018.5hPa West 1.3mph /  2.1km/h 4mph /  6.4km/h 91% 0.00in /  0mm 0 W/m2
21:09 55.8 °F /  13.2 °C 53.2 °F /  11.8 °C 30.08in /  1018.5hPa West 1.7mph /  2.7km/h 4mph /  6.4km/h 91% 0.00in /  0mm 0 W/m2
21:14 55.8 °F /  13.2 °C 53.2 °F /  11.8 °C 30.08in /  1018.5hPa West 1.7mph /  2.7km/h 3mph /  4.8km/h 91% 0.00in /  0mm 0 W/m2
21:19 55.8 °F /  13.2 °C 53.2 °F /  11.8 °C 30.08in /  1018.5hPa West 2mph /  3.2km/h 4mph /  6.4km/h 91% 0.00in /  0mm 0 W/m2
21:24 55.8 °F /  13.2 °C 53.2 °F /  11.8 °C 30.07in /  1018.2hPa West 1.3mph /  2.1km/h 4mph /  6.4km/h 91% 0.00in /  0mm 0 W/m2
21:29 55.8 °F /  13.2 °C 53.2 °F /  11.8 °C 30.07in /  1018.2hPa West 1.7mph /  2.7km/h 4mph /  6.4km/h 91% 0.00in /  0mm 0 W/m2
21:34 55.8 °F /  13.2 °C 53.2 °F /  11.8 °C 30.07in /  1018.2hPa West 0.2mph /  0.3km/h 3mph /  4.8km/h 91% 0.00in /  0mm 0 W/m2
21:39 55.8 °F /  13.2 °C 53.2 °F /  11.8 °C 30.07in /  1018.2hPa Calm     91% 0.00in /  0mm 0 W/m2
21:44 55.6 °F /  13.1 °C 53.1 °F /  11.7 °C 30.07in /  1018.2hPa West 0.6mph /  1km/h 3mph /  4.8km/h 91% 0.00in /  0mm 0 W/m2
21:49 55.6 °F /  13.1 °C 53.1 °F /  11.7 °C 30.07in /  1018.2hPa Calm   1mph /  1.6km/h 91% 0.00in /  0mm 0 W/m2
21:54 55.6 °F /  13.1 °C 53.1 °F /  11.7 °C 30.07in /  1018.2hPa Calm     91% 0.00in /  0mm 0 W/m2
21:59 55.4 °F /  13 °C 52.9 °F /  11.6 °C 30.07in /  1018.2hPa Calm     91% 0.00in /  0mm 0 W/m2
22:04 55.4 °F /  13 °C 52.9 °F /  11.6 °C 30.07in /  1018.2hPa Calm     91% 0.00in /  0mm 0 W/m2
22:09 55.3 °F /  12.9 °C 52.8 °F /  11.6 °C 30.07in /  1018.2hPa Calm     91% 0.00in /  0mm 0 W/m2
22:14 55.2 °F /  12.9 °C 52.7 °F /  11.5 °C 30.07in /  1018.2hPa Calm     91% 0.00in /  0mm 0 W/m2
22:19 55 °F /  12.8 °C 52.6 °F /  11.4 °C 30.06in /  1017.8hPa Calm     91.4% 0.00in /  0mm 0 W/m2
22:24 55 °F /  12.8 °C 52.7 °F /  11.5 °C 30.07in /  1018.2hPa Calm     92% 0.00in /  0mm 0 W/m2
22:29 55 °F /  12.8 °C 52.7 °F /  11.5 °C 30.06in /  1017.8hPa Calm     92% 0.00in /  0mm 0 W/m2
22:34 54.9 °F /  12.7 °C 52.5 °F /  11.4 °C 30.07in /  1018.2hPa West 1.4mph /  2.3km/h 3mph /  4.8km/h 92% 0.00in /  0mm 0 W/m2
22:39 54.9 °F /  12.7 °C 52.5 °F /  11.4 °C 30.07in /  1018.2hPa West 1.2mph /  1.9km/h 3mph /  4.8km/h 92% 0.00in /  0mm 0 W/m2
22:44 54.9 °F /  12.7 °C 52.5 °F /  11.4 °C 30.07in /  1018.2hPa West 1.5mph /  2.4km/h 3mph /  4.8km/h 92% 0.00in /  0mm 0 W/m2
22:49 54.7 °F /  12.6 °C 52.3 °F /  11.3 °C 30.07in /  1018.2hPa West 1.9mph /  3.1km/h 4mph /  6.4km/h 92% 0.00in /  0mm 0 W/m2
22:54 54.7 °F /  12.6 °C 52.3 °F /  11.3 °C 30.07in /  1018.2hPa West 0.9mph /  1.4km/h 3mph /  4.8km/h 92% 0.00in /  0mm 0 W/m2
22:59 54.7 °F /  12.6 °C 52.3 °F /  11.3 °C 30.07in /  1018.2hPa West 0.5mph /  0.8km/h 2mph /  3.2km/h 92% 0.00in /  0mm 0 W/m2
23:04 54.7 °F /  12.6 °C 52.3 °F /  11.3 °C 30.07in /  1018.2hPa West 2.4mph /  3.9km/h 4mph /  6.4km/h 92% 0.00in /  0mm 0 W/m2
23:09 54.7 °F /  12.6 °C 52.3 °F /  11.3 °C 30.08in /  1018.5hPa West 1.2mph /  1.9km/h 4mph /  6.4km/h 92% 0.00in /  0mm 0 W/m2
23:14 54.5 °F /  12.5 °C 52.2 °F /  11.2 °C 30.08in /  1018.5hPa West 1.3mph /  2.1km/h 3mph /  4.8km/h 92% 0.00in /  0mm 0 W/m2
23:19 54.5 °F /  12.5 °C 52.2 °F /  11.2 °C 30.08in /  1018.5hPa West 2mph /  3.2km/h 4mph /  6.4km/h 92% 0.00in /  0mm 0 W/m2
23:24 54.7 °F /  12.6 °C 52.3 °F /  11.3 °C 30.07in /  1018.2hPa West 2.7mph /  4.3km/h 4mph /  6.4km/h 92% 0.00in /  0mm 0 W/m2
23:29 54.7 °F /  12.6 °C 52.3 °F /  11.3 °C 30.07in /  1018.2hPa West 0.9mph /  1.4km/h 3mph /  4.8km/h 92% 0.00in /  0mm 0 W/m2
23:34 54.7 °F /  12.6 °C 52.3 °F /  11.3 °C 30.07in /  1018.2hPa Calm   2mph /  3.2km/h 92% 0.00in /  0mm 0 W/m2
23:39 54.8 °F /  12.7 °C 52.3 °F /  11.3 °C 30.07in /  1018.2hPa West 0.7mph /  1.1km/h 2mph /  3.2km/h 92% 0.00in /  0mm 0 W/m2
23:44 54.8 °F /  12.7 °C 52.7 °F /  11.5 °C 30.08in /  1018.5hPa West 0.4mph /  0.6km/h 2mph /  3.2km/h 92.6% 0.00in /  0mm 0 W/m2
23:49 54.9 °F /  12.7 °C 52.9 °F /  11.6 °C 30.08in /  1018.5hPa West 0.5mph /  0.8km/h 2mph /  3.2km/h 93% 0.00in /  0mm 0 W/m2
23:54 54.9 °F /  12.7 °C 52.9 °F /  11.6 °C 30.08in /  1018.5hPa West 1.1mph /  1.8km/h 3mph /  4.8km/h 93% 0.00in /  0mm 0 W/m2
23:59 54.9 °F /  12.7 °C 52.9 °F /  11.6 °C 30.08in /  1018.5hPa West 0.7mph /  1.1km/h 2mph /  3.2km/h 93% 0.00in /  0mm 0 W/m2
Bath Spa Weather
Compliments of Weather Underground - 2 mb